Time,TemperatureF,DewpointF,PressureIn,WindDirection,WindDirectionDegrees,WindSpeedMPH,WindSpeedGustMPH,Humidity,HourlyPrecipIn,Conditions,Clouds,dailyrainin,SoftwareType,DateUTC
2013-07-14 00:05:00,71.5,68.0,30.19,East,89,0.0,-999.0,87,-99.99,,,0.00,weatherlink.com 1.10,2013-07-14 04:05:00,
2013-07-14 00:20:00,70.9,67.0,30.19,East,89,0.0,-999.0,88,-99.99,,,0.00,weatherlink.com 1.10,2013-07-14 04:20:00,
2013-07-14 00:35:00,70.3,67.0,30.19,East,89,0.0,-999.0,90,-99.99,,,0.00,weatherlink.com 1.10,2013-07-14 04:35:00,
2013-07-14 00:50:00,69.8,67.0,30.20,East,86,0.0,-999.0,91,-99.99,,,0.00,weatherlink.com 1.10,2013-07-14 04:50:00,
2013-07-14 01:05:00,69.4,67.0,30.20,East,85,0.0,-999.0,92,-99.99,,,0.00,weatherlink.com 1.10,2013-07-14 05:05:00,
2013-07-14 01:20:00,69.2,67.0,30.19,East,83,0.0,-999.0,93,-99.99,,,0.00,weatherlink.com 1.10,2013-07-14 05:20:00,
2013-07-14 01:35:00,69.0,67.0,30.19,NNE,13,0.0,-999.0,93,-99.99,,,0.00,weatherlink.com 1.10,2013-07-14 05:35:00,
2013-07-14 01:50:00,69.0,67.0,30.19,NNE,13,0.0,-999.0,93,-99.99,,,0.00,weatherlink.com 1.10,2013-07-14 05:50:00,
2013-07-14 02:05:00,68.9,67.0,30.18,NNE,13,0.0,-999.0,93,-99.99,,,0.00,weatherlink.com 1.10,2013-07-14 06:05:00,
2013-07-14 02:20:00,68.8,67.0,30.18,NNE,13,0.0,-999.0,93,-99.99,,,0.00,weatherlink.com 1.10,2013-07-14 06:20:00,
2013-07-14 02:35:00,68.6,67.0,30.18,NNE,13,0.0,-999.0,94,-99.99,,,0.00,weatherlink.com 1.10,2013-07-14 06:35:00,
2013-07-14 02:50:00,68.4,67.0,30.18,NNE,13,0.0,-999.0,94,-99.99,,,0.00,weatherlink.com 1.10,2013-07-14 06:50:00,
2013-07-14 03:05:00,68.4,67.0,30.18,NNE,13,0.0,-999.0,95,-99.99,,,0.00,weatherlink.com 1.10,2013-07-14 07:05:00,
2013-07-14 03:20:00,68.4,67.0,30.18,North,8,0.0,-999.0,95,-99.99,,,0.00,weatherlink.com 1.10,2013-07-14 07:20:00,
2013-07-14 03:35:00,68.5,67.0,30.18,NNE,30,0.0,-999.0,94,-99.99,,,0.00,weatherlink.com 1.10,2013-07-14 07:35:00,
2013-07-14 03:50:00,68.3,67.0,30.18,NE,34,0.0,-999.0,94,-99.99,,,0.00,weatherlink.com 1.10,2013-07-14 07:50:00,
2013-07-14 04:05:00,68.2,67.0,30.19,North,4,0.0,-999.0,94,-99.99,,,0.00,weatherlink.com 1.10,2013-07-14 08:05:00,
2013-07-14 04:20:00,68.2,67.0,30.19,North,6,0.0,-999.0,94,-99.99,,,0.00,weatherlink.com 1.10,2013-07-14 08:20:00,
2013-07-14 04:35:00,68.1,66.0,30.19,North,3,0.0,-999.0,94,-99.99,,,0.00,weatherlink.com 1.10,2013-07-14 08:35:00,
2013-07-14 04:50:00,68.0,66.0,30.19,North,3,0.0,-999.0,94,-99.99,,,0.00,weatherlink.com 1.10,2013-07-14 08:50:00,
2013-07-14 05:05:00,67.9,67.0,30.20,North,4,0.0,-999.0,95,-99.99,,,0.00,weatherlink.com 1.10,2013-07-14 09:05:00,
2013-07-14 05:20:00,67.8,66.0,30.20,NNE,31,0.0,-999.0,95,-99.99,,,0.00,weatherlink.com 1.10,2013-07-14 09:20:00,
2013-07-14 05:35:00,67.8,66.0,30.21,NNE,32,0.0,-999.0,95,-99.99,,,0.00,weatherlink.com 1.10,2013-07-14 09:35:00,
2013-07-14 05:50:00,67.7,66.0,30.21,NNE,30,0.0,-999.0,95,-99.99,,,0.00,weatherlink.com 1.10,2013-07-14 09:50:00,
2013-07-14 06:05:00,67.6,66.0,30.21,NNE,30,0.0,-999.0,95,-99.99,,,0.00,weatherlink.com 1.10,2013-07-14 10:05:00,
2013-07-14 06:20:00,67.7,66.0,30.22,NNE,30,0.0,-999.0,95,-99.99,,,0.00,weatherlink.com 1.10,2013-07-14 10:20:00,
2013-07-14 06:35:00,68.1,67.0,30.22,East,81,0.0,-999.0,96,-99.99,,,0.00,weatherlink.com 1.10,2013-07-14 10:35:00,
2013-07-14 06:50:00,69.2,68.0,30.22,East,79,0.0,-999.0,94,-99.99,,,0.00,weatherlink.com 1.10,2013-07-14 10:50:00,
2013-07-14 07:05:00,70.5,68.0,30.22,NE,41,0.0,-999.0,93,-99.99,,,0.00,weatherlink.com 1.10,2013-07-14 11:05:00,
2013-07-14 07:20:00,71.4,69.0,30.22,ENE,75,0.0,-999.0,92,-99.99,,,0.00,weatherlink.com 1.10,2013-07-14 11:20:00,
2013-07-14 07:35:00,72.7,70.0,30.23,ENE,73,0.0,-999.0,91,-99.99,,,0.00,weatherlink.com 1.10,2013-07-14 11:35:00,
2013-07-14 07:50:00,74.3,71.0,30.23,East,86,0.0,-999.0,90,-99.99,,,0.00,weatherlink.com 1.10,2013-07-14 11:50:00,
2013-07-14 08:05:00,75.4,72.0,30.22,East,93,0.0,-999.0,88,-99.99,,,0.00,weatherlink.com 1.10,2013-07-14 12:05:00,
2013-07-14 08:20:00,77.0,73.0,30.22,East,96,0.0,-999.0,86,-99.99,,,0.00,weatherlink.com 1.10,2013-07-14 12:20:00,
2013-07-14 08:35:00,78.5,74.0,30.23,East,85,1.0,-999.0,85,-99.99,,,0.00,weatherlink.com 1.10,2013-07-14 12:35:00,
2013-07-14 08:50:00,79.0,74.0,30.22,ESE,104,3.0,-999.0,84,-99.99,,,0.00,weatherlink.com 1.10,2013-07-14 12:50:00,
2013-07-14 09:05:00,80.3,74.0,30.22,ESE,115,0.0,-999.0,82,-99.99,,,0.00,weatherlink.com 1.10,2013-07-14 13:05:00,
2013-07-14 09:20:00,80.3,74.0,30.22,East,86,4.0,-999.0,80,-99.99,,,0.00,weatherlink.com 1.10,2013-07-14 13:20:00,
2013-07-14 09:35:00,80.5,74.0,30.23,ESE,106,3.0,-999.0,80,-99.99,,,0.00,weatherlink.com 1.10,2013-07-14 13:35:00,
2013-07-14 09:50:00,80.9,74.0,30.22,ESE,106,3.0,-999.0,80,-99.99,,,0.00,weatherlink.com 1.10,2013-07-14 13:50:00,
2013-07-14 10:05:00,80.5,73.0,30.22,ENE,63,6.0,-999.0,79,-99.99,,,0.00,weatherlink.com 1.10,2013-07-14 14:05:00,
2013-07-14 10:20:00,80.6,74.0,30.22,East,90,4.0,-999.0,80,-99.99,,,0.00,weatherlink.com 1.10,2013-07-14 14:20:00,
2013-07-14 10:35:00,81.3,74.0,30.22,East,86,4.0,-999.0,79,-99.99,,,0.00,weatherlink.com 1.10,2013-07-14 14:35:00,
2013-07-14 10:50:00,81.0,74.0,30.22,NNE,31,4.0,-999.0,78,-99.99,,,0.00,weatherlink.com 1.10,2013-07-14 14:50:00,
2013-07-14 11:05:00,81.9,73.0,30.22,East,96,5.0,-999.0,75,-99.99,,,0.00,weatherlink.com 1.10,2013-07-14 15:05:00,
2013-07-14 11:20:00,82.7,73.0,30.23,ESE,103,2.0,-999.0,73,-99.99,,,0.00,weatherlink.com 1.10,2013-07-14 15:20:00,
2013-07-14 11:35:00,83.0,74.0,30.23,East,91,4.0,-999.0,73,-99.99,,,0.00,weatherlink.com 1.10,2013-07-14 15:35:00,
2013-07-14 11:50:00,83.7,74.0,30.23,East,101,4.0,-999.0,73,-99.99,,,0.00,weatherlink.com 1.10,2013-07-14 15:50:00,
2013-07-14 12:05:00,83.1,74.0,30.23,ENE,65,5.0,-999.0,73,-99.99,,,0.00,weatherlink.com 1.10,2013-07-14 16:05:00,
2013-07-14 12:20:00,82.6,73.0,30.23,East,94,6.0,-999.0,73,-99.99,,,0.00,weatherlink.com 1.10,2013-07-14 16:20:00,
2013-07-14 12:35:00,82.7,73.0,30.23,ESE,108,4.0,-999.0,72,-99.99,,,0.00,weatherlink.com 1.10,2013-07-14 16:35:00,
2013-07-14 12:50:00,83.7,73.0,30.23,East,84,5.0,-999.0,69,-99.99,,,0.00,weatherlink.com 1.10,2013-07-14 16:50:00,
2013-07-14 13:05:00,83.6,72.0,30.23,East,101,9.0,-999.0,67,-99.99,,,0.00,weatherlink.com 1.10,2013-07-14 17:05:00,
2013-07-14 13:20:00,84.2,72.0,30.22,East,90,5.0,-999.0,66,-99.99,,,0.00,weatherlink.com 1.10,2013-07-14 17:20:00,
2013-07-14 13:35:00,84.4,71.0,30.22,ENE,74,8.0,-999.0,65,-99.99,,,0.00,weatherlink.com 1.10,2013-07-14 17:35:00,
2013-07-14 13:50:00,84.9,72.0,30.22,East,86,5.0,-999.0,65,-99.99,,,0.00,weatherlink.com 1.10,2013-07-14 17:50:00,
2013-07-14 14:05:00,85.0,71.0,30.22,ESE,111,9.0,-999.0,63,-99.99,,,0.00,weatherlink.com 1.10,2013-07-14 18:05:00,
2013-07-14 14:20:00,84.4,71.0,30.22,ENE,73,4.0,-999.0,64,-99.99,,,0.00,weatherlink.com 1.10,2013-07-14 18:20:00,
2013-07-14 14:35:00,85.0,71.0,30.22,ENE,70,7.0,-999.0,64,-99.99,,,0.00,weatherlink.com 1.10,2013-07-14 18:35:00,
2013-07-14 14:50:00,84.9,71.0,30.22,East,94,5.0,-999.0,64,-99.99,,,0.00,weatherlink.com 1.10,2013-07-14 18:50:00,
2013-07-14 15:05:00,84.7,71.0,30.22,ESE,104,6.0,-999.0,64,-99.99,,,0.00,weatherlink.com 1.10,2013-07-14 19:05:00,
2013-07-14 15:20:00,84.1,72.0,30.22,ESE,121,5.0,-999.0,66,-99.99,,,0.00,weatherlink.com 1.10,2013-07-14 19:20:00,
2013-07-14 15:35:00,83.9,72.0,30.22,ENE,77,4.0,-999.0,67,-99.99,,,0.00,weatherlink.com 1.10,2013-07-14 19:35:00,
2013-07-14 15:50:00,83.9,72.0,30.21,East,94,4.0,-999.0,68,-99.99,,,0.00,weatherlink.com 1.10,2013-07-14 19:50:00,
2013-07-14 16:05:00,83.7,73.0,30.21,East,93,3.0,-999.0,69,-99.99,,,0.00,weatherlink.com 1.10,2013-07-14 20:05:00,
2013-07-14 16:20:00,84.3,72.0,30.21,East,95,6.0,-999.0,67,-99.99,,,0.00,weatherlink.com 1.10,2013-07-14 20:20:00,
2013-07-14 16:35:00,84.0,71.0,30.21,East,79,6.0,-999.0,66,-99.99,,,0.00,weatherlink.com 1.10,2013-07-14 20:35:00,
2013-07-14 16:50:00,84.2,72.0,30.21,East,96,6.0,-999.0,67,-99.99,,,0.00,weatherlink.com 1.10,2013-07-14 20:50:00,
2013-07-14 17:05:00,84.1,72.0,30.21,SE,128,2.0,-999.0,68,-99.99,,,0.00,weatherlink.com 1.10,2013-07-14 21:05:00,
2013-07-14 17:20:00,84.1,71.0,30.21,ESE,110,6.0,-999.0,65,-99.99,,,0.00,weatherlink.com 1.10,2013-07-14 21:20:00,
2013-07-14 17:35:00,84.0,72.0,30.20,East,84,4.0,-999.0,68,-99.99,,,0.00,weatherlink.com 1.10,2013-07-14 21:35:00,
2013-07-14 17:50:00,84.1,72.0,30.21,East,83,7.0,-999.0,67,-99.99,,,0.00,weatherlink.com 1.10,2013-07-14 21:50:00,
2013-07-14 18:05:00,84.7,73.0,30.20,East,98,7.0,-999.0,67,-99.99,,,0.00,weatherlink.com 1.10,2013-07-14 22:05:00,
2013-07-14 18:20:00,84.6,72.0,30.20,East,91,6.0,-999.0,67,-99.99,,,0.00,weatherlink.com 1.10,2013-07-14 22:20:00,
2013-07-14 18:35:00,85.3,72.0,30.20,SE,132,3.0,-999.0,65,-99.99,,,0.00,weatherlink.com 1.10,2013-07-14 22:35:00,
2013-07-14 18:50:00,85.3,73.0,30.20,SE,128,3.0,-999.0,66,-99.99,,,0.00,weatherlink.com 1.10,2013-07-14 22:50:00,
2013-07-14 19:05:00,84.7,73.0,30.19,ESE,103,4.0,-999.0,67,-99.99,,,0.00,weatherlink.com 1.10,2013-07-14 23:05:00,
2013-07-14 19:20:00,84.0,73.0,30.20,ESE,113,4.0,-999.0,70,-99.99,,,0.00,weatherlink.com 1.10,2013-07-14 23:20:00,
2013-07-14 19:35:00,83.9,72.0,30.19,ENE,74,4.0,-999.0,68,-99.99,,,0.00,weatherlink.com 1.10,2013-07-14 23:35:00,
2013-07-14 19:50:00,83.6,74.0,30.20,East,86,4.0,-999.0,72,-99.99,,,0.00,weatherlink.com 1.10,2013-07-14 23:50:00,
2013-07-14 20:05:00,82.6,74.0,30.20,ESE,105,6.0,-999.0,74,-99.99,,,0.00,weatherlink.com 1.10,2013-07-15 00:05:00,
2013-07-14 20:20:00,81.6,73.0,30.20,East,83,3.0,-999.0,76,-99.99,,,0.00,weatherlink.com 1.10,2013-07-15 00:20:00,
2013-07-14 20:35:00,80.5,73.0,30.20,ENE,77,2.0,-999.0,79,-99.99,,,0.00,weatherlink.com 1.10,2013-07-15 00:35:00,
2013-07-14 20:50:00,79.9,73.0,30.20,East,91,1.0,-999.0,80,-99.99,,,0.00,weatherlink.com 1.10,2013-07-15 00:50:00,
2013-07-14 21:05:00,79.2,73.0,30.21,East,90,4.0,-999.0,82,-99.99,,,0.00,weatherlink.com 1.10,2013-07-15 01:05:00,
2013-07-14 21:20:00,78.6,73.0,30.21,East,97,2.0,-999.0,84,-99.99,,,0.00,weatherlink.com 1.10,2013-07-15 01:20:00,
2013-07-14 21:35:00,78.2,73.0,30.21,East,100,2.0,-999.0,85,-99.99,,,0.00,weatherlink.com 1.10,2013-07-15 01:35:00,
2013-07-14 21:50:00,77.9,74.0,30.21,SE,125,1.0,-999.0,87,-99.99,,,0.00,weatherlink.com 1.10,2013-07-15 01:50:00,
2013-07-14 22:05:00,77.8,74.0,30.22,ENE,72,1.0,-999.0,88,-99.99,,,0.00,weatherlink.com 1.10,2013-07-15 02:05:00,
2013-07-14 22:20:00,77.4,74.0,30.22,ESE,115,1.0,-999.0,89,-99.99,,,0.00,weatherlink.com 1.10,2013-07-15 02:20:00,
2013-07-14 22:35:00,77.0,74.0,30.23,ESE,105,0.0,-999.0,90,-99.99,,,0.00,weatherlink.com 1.10,2013-07-15 02:35:00,
2013-07-14 22:50:00,76.9,74.0,30.23,ESE,108,0.0,-999.0,90,-99.99,,,0.00,weatherlink.com 1.10,2013-07-15 02:50:00,
2013-07-14 23:05:00,76.9,74.0,30.23,ESE,116,0.0,-999.0,91,-99.99,,,0.00,weatherlink.com 1.10,2013-07-15 03:05:00,
2013-07-14 23:20:00,76.6,74.0,30.23,ESE,114,0.0,-999.0,91,-99.99,,,0.00,weatherlink.com 1.10,2013-07-15 03:20:00,
2013-07-14 23:35:00,76.4,73.0,30.23,ESE,115,1.0,-999.0,90,-99.99,,,0.00,weatherlink.com 1.10,2013-07-15 03:35:00,
2013-07-14 23:50:00,76.5,74.0,30.23,East,86,0.0,-999.0,91,-99.99,,,0.00,weatherlink.com 1.10,2013-07-15 03:50:00,